Time;durP1;ratioP1;P1;durP2;ratioP2;P2;SDS_P1;SDS_P2;PMS_P1;PMS_P2;Temp;Humidity;BMP_temperature;BMP_pressure;BME280_temperature;BME280_humidity;BME280_pressure;Samples;Min_cycle;Max_cycle;Signal;HPM_P1;HPM_P2
2021/04/28 00:01:55;;;;;;;81.38;51.20;;;;;;;;;;4956982;29;20050;-49
2021/04/28 00:04:21;;;;;;;52.35;35.13;;;;;;;;;;4957112;29;20034;-48
2021/04/28 00:06:48;;;;;;;50.90;34.97;;;;;;;;;;4956689;28;20040;-48
2021/04/28 00:09:14;;;;;;;65.07;41.33;;;;;;;;;;4956744;29;20475;-48
2021/04/28 00:11:41;;;;;;;89.75;56.85;;;;;;;;;;4957062;29;20035;-48
2021/04/28 00:14:08;;;;;;;61.42;39.08;;;;;;;;;;4956897;28;20028;-49
2021/04/28 00:16:34;;;;;;;68.55;42.92;;;;;;;;;;4956713;29;20047;-47
2021/04/28 00:19:01;;;;;;;73.70;47.30;;;;;;;;;;4956582;28;20035;-48
2021/04/28 00:21:27;;;;;;;78.25;49.97;;;;;;;;;;4956537;29;20031;-48
2021/04/28 00:23:54;;;;;;;74.22;44.10;;;;;;;;;;4956428;29;20031;-49
2021/04/28 00:26:20;;;;;;;69.40;45.45;;;;;;;;;;4956521;29;20034;-48
2021/04/28 00:28:46;;;;;;;62.72;38.70;;;;;;;;;;4956573;29;20023;-49
2021/04/28 00:31:12;;;;;;;62.35;39.58;;;;;;;;;;4956405;29;20103;-48
2021/04/28 00:33:39;;;;;;;80.85;45.92;;;;;;;;;;4956433;29;20072;-49
2021/04/28 00:36:05;;;;;;;73.95;46.72;;;;;;;;;;4956170;29;20114;-47
2021/04/28 00:38:31;;;;;;;47.58;32.60;;;;;;;;;;4956193;28;20424;-48
2021/04/28 00:40:57;;;;;;;113.15;65.82;;;;;;;;;;4956508;29;20019;-48
2021/04/28 00:43:24;;;;;;;77.53;47.88;;;;;;;;;;4956158;29;20058;-48
2021/04/28 00:45:50;;;;;;;58.65;37.42;;;;;;;;;;4956217;29;20500;-49
2021/04/28 00:48:17;;;;;;;43.00;27.15;;;;;;;;;;4956015;29;20093;-49
2021/04/28 00:50:44;;;;;;;52.72;32.00;;;;;;;;;;4956076;29;20038;-49
2021/04/28 00:53:11;;;;;;;68.43;42.92;;;;;;;;;;4956029;29;20035;-47
2021/04/28 00:55:40;;;;;;;49.47;31.40;;;;;;;;;;4955895;29;20031;-47
2021/04/28 00:58:06;;;;;;;31.17;23.45;;;;;;;;;;4956215;29;20038;-49
2021/04/28 01:00:33;;;;;;;35.50;24.98;;;;;;;;;;4955479;28;20476;-48
2021/04/28 01:02:59;;;;;;;67.38;42.83;;;;;;;;;;4955963;29;20494;-48
2021/04/28 01:05:25;;;;;;;45.58;32.63;;;;;;;;;;4955896;29;20031;-48
2021/04/28 01:07:51;;;;;;;44.15;30.83;;;;;;;;;;4955631;29;20045;-49
2021/04/28 01:10:19;;;;;;;60.15;38.63;;;;;;;;;;4955693;29;20023;-49
2021/04/28 01:12:46;;;;;;;55.58;37.88;;;;;;;;;;4955888;28;20027;-48
2021/04/28 01:15:14;;;;;;;45.50;31.30;;;;;;;;;;4955621;29;20027;-49
2021/04/28 01:17:41;;;;;;;59.83;39.13;;;;;;;;;;4955427;29;20047;-49
2021/04/28 01:20:08;;;;;;;94.38;62.92;;;;;;;;;;4955750;29;20025;-49
2021/04/28 01:22:41;;;;;;;110.32;79.20;;;;;;;;;;4955603;29;20392;-48
2021/04/28 01:25:09;;;;;;;86.50;58.67;;;;;;;;;;4955655;29;20047;-48
2021/04/28 01:27:36;;;;;;;58.15;39.83;;;;;;;;;;4955567;29;20023;-48
2021/04/28 01:30:03;;;;;;;41.60;30.52;;;;;;;;;;4955553;29;20027;-48
2021/04/28 01:32:29;;;;;;;51.13;38.30;;;;;;;;;;4955597;29;20366;-48
2021/04/28 01:34:58;;;;;;;59.40;47.42;;;;;;;;;;4955465;29;20027;-47
2021/04/28 01:37:24;;;;;;;50.35;39.55;;;;;;;;;;4955383;28;20060;-47
2021/04/28 01:39:51;;;;;;;39.78;32.53;;;;;;;;;;4955324;28;20050;-48
2021/04/28 01:42:18;;;;;;;39.08;31.40;;;;;;;;;;4955441;28;20023;-47
2021/04/28 01:44:44;;;;;;;44.13;31.85;;;;;;;;;;4955229;29;20024;-48
2021/04/28 01:47:11;;;;;;;60.75;43.97;;;;;;;;;;4954975;29;20522;-48
2021/04/28 01:49:37;;;;;;;82.60;63.55;;;;;;;;;;4955144;29;20027;-48
2021/04/28 01:52:03;;;;;;;60.00;46.28;;;;;;;;;;4955269;29;20034;-48
2021/04/28 01:54:32;;;;;;;52.30;34.75;;;;;;;;;;4955365;29;20479;-44
2021/04/28 01:56:58;;;;;;;43.35;29.67;;;;;;;;;;4955085;29;20061;-47
2021/04/28 01:59:25;;;;;;;43.30;31.27;;;;;;;;;;4955344;29;20034;-46
2021/04/28 02:01:53;;;;;;;53.40;38.95;;;;;;;;;;4955040;28;20023;-46
2021/04/28 02:04:23;;;;;;;56.50;42.20;;;;;;;;;;4955244;29;20028;-47
2021/04/28 02:06:50;;;;;;;46.00;35.83;;;;;;;;;;4955263;29;20044;-46
2021/04/28 02:09:17;;;;;;;42.17;30.30;;;;;;;;;;4955317;29;20027;-46
2021/04/28 02:11:43;;;;;;;37.58;28.13;;;;;;;;;;4956475;28;20059;-46
2021/04/28 02:14:12;;;;;;;36.67;27.30;;;;;;;;;;4957702;29;20063;-47
2021/04/28 02:16:40;;;;;;;39.58;29.33;;;;;;;;;;4958734;28;20047;-47
2021/04/28 02:19:07;;;;;;;37.72;26.83;;;;;;;;;;4959005;29;20024;-46
2021/04/28 02:21:33;;;;;;;35.42;27.63;;;;;;;;;;4958702;29;20027;-46
2021/04/28 02:24:00;;;;;;;37.72;25.88;;;;;;;;;;4958966;28;20026;-47
2021/04/28 02:26:26;;;;;;;33.03;24.58;;;;;;;;;;4958840;29;20357;-46
2021/04/28 02:28:53;;;;;;;37.08;26.95;;;;;;;;;;4958880;29;20036;-47
2021/04/28 02:31:19;;;;;;;34.50;26.05;;;;;;;;;;4958879;29;20030;-46
2021/04/28 02:33:45;;;;;;;32.60;24.27;;;;;;;;;;4958651;29;20027;-46
2021/04/28 02:36:11;;;;;;;32.33;22.73;;;;;;;;;;4957102;29;20035;-46
2021/04/28 02:38:37;;;;;;;27.38;21.80;;;;;;;;;;4958574;29;20461;-46
2021/04/28 02:41:04;;;;;;;29.92;21.27;;;;;;;;;;4958552;29;20432;-46
2021/04/28 02:43:31;;;;;;;28.00;20.52;;;;;;;;;;4958484;29;20023;-47
2021/04/28 02:45:58;;;;;;;25.10;19.25;;;;;;;;;;4958407;29;20396;-47
2021/04/28 02:48:27;;;;;;;25.50;18.20;;;;;;;;;;4958353;28;20345;-47
2021/04/28 02:50:54;;;;;;;24.45;17.48;;;;;;;;;;4958441;28;20023;-47
2021/04/28 02:53:23;;;;;;;22.92;16.52;;;;;;;;;;4958599;29;20376;-47
2021/04/28 02:55:49;;;;;;;21.73;16.15;;;;;;;;;;4958283;28;20038;-46
2021/04/28 02:58:15;;;;;;;23.10;16.58;;;;;;;;;;4958289;29;20038;-47
2021/04/28 03:00:42;;;;;;;28.00;15.82;;;;;;;;;;4958182;29;20024;-47
2021/04/28 03:03:08;;;;;;;22.92;15.43;;;;;;;;;;4958165;29;20036;-47
2021/04/28 03:05:34;;;;;;;22.42;15.20;;;;;;;;;;4957984;29;20090;-47
2021/04/28 03:08:03;;;;;;;21.65;14.70;;;;;;;;;;4957955;28;20051;-47
2021/04/28 03:10:29;;;;;;;15.45;12.60;;;;;;;;;;4958173;29;20145;-47
2021/04/28 03:12:55;;;;;;;20.95;14.15;;;;;;;;;;4958219;29;20023;-47
2021/04/28 03:15:21;;;;;;;16.58;12.75;;;;;;;;;;4957996;29;20019;-46
2021/04/28 03:17:48;;;;;;;21.83;13.65;;;;;;;;;;4957580;29;20357;-46
2021/04/28 03:20:15;;;;;;;16.98;12.40;;;;;;;;;;4957682;29;20487;-46
2021/04/28 03:22:41;;;;;;;17.98;13.25;;;;;;;;;;4957756;28;20106;-46
2021/04/28 03:25:08;;;;;;;17.08;12.38;;;;;;;;;;4957932;29;20030;-46
2021/04/28 03:27:34;;;;;;;19.63;12.77;;;;;;;;;;4957790;29;20030;-46
2021/04/28 03:30:00;;;;;;;18.67;12.43;;;;;;;;;;4957739;29;20476;-47
2021/04/28 03:32:26;;;;;;;15.95;12.35;;;;;;;;;;4957556;29;20106;-47
2021/04/28 03:34:53;;;;;;;17.17;12.23;;;;;;;;;;4957612;29;20361;-47
2021/04/28 03:37:19;;;;;;;20.92;11.82;;;;;;;;;;4957387;29;20086;-46
2021/04/28 03:39:45;;;;;;;17.50;12.32;;;;;;;;;;4957669;29;20031;-46
2021/04/28 03:42:11;;;;;;;17.55;11.15;;;;;;;;;;4957502;28;20034;-47
2021/04/28 03:44:40;;;;;;;18.00;12.25;;;;;;;;;;4957326;29;20031;-47
2021/04/28 03:47:06;;;;;;;18.35;11.95;;;;;;;;;;4957275;29;20038;-47
2021/04/28 03:49:32;;;;;;;21.33;12.52;;;;;;;;;;4957452;28;20037;-47
2021/04/28 03:51:58;;;;;;;19.58;13.23;;;;;;;;;;4957172;29;20070;-46
2021/04/28 03:54:24;;;;;;;20.25;12.07;;;;;;;;;;4957281;29;20110;-46
2021/04/28 03:56:50;;;;;;;20.30;13.32;;;;;;;;;;4957154;28;20042;-46
2021/04/28 03:59:16;;;;;;;19.25;12.70;;;;;;;;;;4957535;29;20027;-46
2021/04/28 04:01:43;;;;;;;22.35;13.02;;;;;;;;;;4957062;29;20102;-46
2021/04/28 04:04:09;;;;;;;18.80;12.02;;;;;;;;;;4956974;29;20050;-46
2021/04/28 04:06:35;;;;;;;20.90;13.52;;;;;;;;;;4956859;28;20047;-46
2021/04/28 04:09:01;;;;;;;20.20;13.27;;;;;;;;;;4956966;29;20031;-46
2021/04/28 04:11:27;;;;;;;19.83;13.05;;;;;;;;;;4957112;29;20543;-47
2021/04/28 04:13:55;;;;;;;23.38;14.13;;;;;;;;;;4956832;29;20365;-47
2021/04/28 04:16:21;;;;;;;26.05;14.30;;;;;;;;;;4955251;28;20106;-46
2021/04/28 04:18:47;;;;;;;20.00;14.80;;;;;;;;;;4956699;29;20057;-47
2021/04/28 04:21:14;;;;;;;20.67;14.60;;;;;;;;;;4956692;29;20023;-47
2021/04/28 04:23:40;;;;;;;22.50;14.95;;;;;;;;;;4956588;28;20031;-47
2021/04/28 04:26:06;;;;;;;24.95;14.82;;;;;;;;;;4956611;28;20109;-47
2021/04/28 04:28:32;;;;;;;23.42;14.70;;;;;;;;;;4956929;28;20027;-47
2021/04/28 04:30:58;;;;;;;21.58;15.63;;;;;;;;;;4956641;29;20102;-47
2021/04/28 04:33:24;;;;;;;23.23;16.08;;;;;;;;;;4956229;28;20023;-47
2021/04/28 04:35:50;;;;;;;23.40;14.65;;;;;;;;;;4955843;29;20063;-47
2021/04/28 04:38:16;;;;;;;29.00;17.08;;;;;;;;;;4956511;29;20042;-47
2021/04/28 04:40:43;;;;;;;28.05;17.02;;;;;;;;;;4956391;29;20090;-47
2021/04/28 04:43:09;;;;;;;29.38;17.55;;;;;;;;;;4956384;29;20027;-47
2021/04/28 04:45:36;;;;;;;30.13;17.70;;;;;;;;;;4956229;29;20043;-47
2021/04/28 04:48:06;;;;;;;26.77;18.02;;;;;;;;;;4956086;28;20074;-47
2021/04/28 04:50:32;;;;;;;28.73;19.15;;;;;;;;;;4956096;29;20041;-47
2021/04/28 04:52:58;;;;;;;36.67;19.63;;;;;;;;;;4956405;29;20067;-47
2021/04/28 04:55:27;;;;;;;29.63;19.52;;;;;;;;;;4956063;29;20031;-47
2021/04/28 04:57:53;;;;;;;33.10;19.65;;;;;;;;;;4956147;29;20035;-47
2021/04/28 05:00:20;;;;;;;26.10;18.60;;;;;;;;;;4956061;29;20050;-48
2021/04/28 05:02:46;;;;;;;28.52;18.45;;;;;;;;;;4956062;29;20148;-48
2021/04/28 05:05:13;;;;;;;37.75;18.67;;;;;;;;;;4956313;28;20027;-48
2021/04/28 05:07:39;;;;;;;24.88;17.25;;;;;;;;;;4955922;28;20066;-47
2021/04/28 05:10:06;;;;;;;29.75;18.90;;;;;;;;;;4956250;29;20021;-48
2021/04/28 05:12:33;;;;;;;27.95;16.98;;;;;;;;;;4955958;28;20023;-47
2021/04/28 05:14:59;;;;;;;27.33;15.55;;;;;;;;;;4955961;28;20107;-47
2021/04/28 05:17:25;;;;;;;24.65;15.07;;;;;;;;;;4955639;29;20408;-47
2021/04/28 05:19:51;;;;;;;22.67;16.10;;;;;;;;;;4955700;29;20026;-47
2021/04/28 05:22:22;;;;;;;22.02;14.65;;;;;;;;;;4955646;29;20034;-47
2021/04/28 05:24:48;;;;;;;25.77;16.60;;;;;;;;;;4955609;29;20031;-47
2021/04/28 05:27:14;;;;;;;38.67;24.08;;;;;;;;;;4955577;29;20023;-47
2021/04/28 05:29:40;;;;;;;29.95;20.13;;;;;;;;;;4955505;29;20110;-47
2021/04/28 05:32:06;;;;;;;37.53;23.75;;;;;;;;;;4955486;29;20481;-47
2021/04/28 05:34:32;;;;;;;34.33;21.67;;;;;;;;;;4955772;29;20110;-47
2021/04/28 05:36:58;;;;;;;28.33;16.95;;;;;;;;;;4955350;29;20039;-47
2021/04/28 05:39:24;;;;;;;45.05;28.40;;;;;;;;;;4955611;29;20031;-47
2021/04/28 05:41:52;;;;;;;34.42;21.38;;;;;;;;;;4955654;29;20114;-47
2021/04/28 05:44:18;;;;;;;51.95;33.13;;;;;;;;;;4955443;29;20019;-46
2021/04/28 05:46:45;;;;;;;34.75;21.83;;;;;;;;;;4955276;28;20122;-47
2021/04/28 05:49:11;;;;;;;29.25;19.40;;;;;;;;;;4955323;29;20030;-47
2021/04/28 05:51:37;;;;;;;31.20;21.45;;;;;;;;;;4955196;29;20086;-48
2021/04/28 05:54:06;;;;;;;30.20;19.13;;;;;;;;;;4955444;29;20024;-47
2021/04/28 05:56:32;;;;;;;23.77;15.98;;;;;;;;;;4955236;29;20118;-48
2021/04/28 05:58:58;;;;;;;27.38;14.82;;;;;;;;;;4955284;29;20023;-47
2021/04/28 06:01:24;;;;;;;25.02;15.13;;;;;;;;;;4955081;28;20028;-47
2021/04/28 06:03:53;;;;;;;27.30;16.77;;;;;;;;;;4955078;29;20031;-47
2021/04/28 06:06:19;;;;;;;18.35;12.90;;;;;;;;;;4954877;29;20039;-47
2021/04/28 06:08:45;;;;;;;21.75;14.63;;;;;;;;;;4955045;29;20082;-47
2021/04/28 06:11:11;;;;;;;20.60;13.98;;;;;;;;;;4955038;29;20019;-48
2021/04/28 06:13:38;;;;;;;25.60;14.60;;;;;;;;;;4954938;29;20503;-47
2021/04/28 06:16:04;;;;;;;23.15;15.48;;;;;;;;;;4954812;28;20020;-47
2021/04/28 06:18:31;;;;;;;16.05;12.65;;;;;;;;;;4954852;29;20027;-47
2021/04/28 06:20:59;;;;;;;20.65;13.88;;;;;;;;;;4954811;28;20053;-47
2021/04/28 06:23:25;;;;;;;18.17;12.60;;;;;;;;;;4954972;29;20034;-47
2021/04/28 06:25:51;;;;;;;21.02;14.98;;;;;;;;;;4955155;29;20028;-47
2021/04/28 06:28:18;;;;;;;18.10;13.43;;;;;;;;;;4954763;29;20035;-46
2021/04/28 06:30:44;;;;;;;25.77;15.82;;;;;;;;;;4955067;29;20019;-46
2021/04/28 06:33:10;;;;;;;24.60;16.73;;;;;;;;;;4954703;29;20411;-48
2021/04/28 06:35:38;;;;;;;33.58;21.33;;;;;;;;;;4954678;29;20043;-46
2021/04/28 06:38:04;;;;;;;34.40;21.08;;;;;;;;;;4962211;28;20619;-45
2021/04/28 06:40:30;;;;;;;39.17;22.63;;;;;;;;;;4963477;28;20078;-46
2021/04/28 06:42:56;;;;;;;46.63;29.83;;;;;;;;;;4963470;28;20026;-47
2021/04/28 06:45:22;;;;;;;71.30;38.95;;;;;;;;;;4964743;28;20047;-47
2021/04/28 06:47:49;;;;;;;81.70;46.08;;;;;;;;;;4957207;28;20050;-49
2021/04/28 06:50:15;;;;;;;59.78;35.42;;;;;;;;;;4945065;28;20039;-49
2021/04/28 06:52:44;;;;;;;43.05;25.00;;;;;;;;;;4963804;28;20029;-50
2021/04/28 06:55:10;;;;;;;32.75;20.85;;;;;;;;;;4963013;28;20388;-48
2021/04/28 06:57:36;;;;;;;70.88;37.95;;;;;;;;;;4955875;28;20063;-47
2021/04/28 07:00:04;;;;;;;48.75;28.50;;;;;;;;;;4958388;29;20152;-47
2021/04/28 07:02:30;;;;;;;43.05;26.35;;;;;;;;;;4963366;28;20114;-47
2021/04/28 07:04:56;;;;;;;34.03;22.35;;;;;;;;;;4966443;28;20435;-47
2021/04/28 07:07:22;;;;;;;37.90;25.35;;;;;;;;;;4967164;28;20054;-47
2021/04/28 07:09:48;;;;;;;34.38;23.08;;;;;;;;;;4967863;28;20396;-47
2021/04/28 07:12:15;;;;;;;33.33;22.13;;;;;;;;;;4966016;28;20027;-45
2021/04/28 07:14:41;;;;;;;29.10;19.75;;;;;;;;;;4967226;28;20019;-46
2021/04/28 07:17:08;;;;;;;28.90;21.40;;;;;;;;;;4967366;28;20039;-47
2021/04/28 07:19:34;;;;;;;33.00;22.77;;;;;;;;;;4965922;28;20480;-47
2021/04/28 07:22:01;;;;;;;32.83;23.10;;;;;;;;;;4967093;28;20047;-48
2021/04/28 07:24:27;;;;;;;37.20;25.10;;;;;;;;;;4975781;28;20368;-47
2021/04/28 07:26:54;;;;;;;37.47;24.60;;;;;;;;;;4977057;28;20101;-48
2021/04/28 07:29:20;;;;;;;42.10;24.77;;;;;;;;;;4977201;28;20093;-48
2021/04/28 07:31:46;;;;;;;36.28;23.45;;;;;;;;;;4977240;28;20387;-47
2021/04/28 07:34:12;;;;;;;32.92;23.20;;;;;;;;;;4976907;28;20551;-48
2021/04/28 07:36:38;;;;;;;40.63;26.33;;;;;;;;;;4977041;28;20066;-48
2021/04/28 07:39:07;;;;;;;37.05;26.25;;;;;;;;;;4976954;28;20026;-48
2021/04/28 07:41:34;;;;;;;38.65;27.13;;;;;;;;;;4977029;28;20034;-48
2021/04/28 07:44:01;;;;;;;43.15;28.10;;;;;;;;;;4977051;28;20439;-48
2021/04/28 07:46:27;;;;;;;38.72;27.42;;;;;;;;;;4976941;28;20031;-48
2021/04/28 07:48:54;;;;;;;33.25;25.92;;;;;;;;;;4976634;28;20037;-47
2021/04/28 07:51:20;;;;;;;41.95;27.65;;;;;;;;;;4977015;28;20019;-48
2021/04/28 07:53:46;;;;;;;36.65;24.92;;;;;;;;;;4976692;28;20034;-48
2021/04/28 07:56:12;;;;;;;35.45;25.83;;;;;;;;;;4976763;28;20110;-46
2021/04/28 07:58:39;;;;;;;35.38;26.38;;;;;;;;;;4977139;28;20037;-47
2021/04/28 08:01:05;;;;;;;40.83;28.08;;;;;;;;;;4976516;28;20077;-48
2021/04/28 08:03:31;;;;;;;42.38;26.00;;;;;;;;;;4959108;28;20043;-48
2021/04/28 08:05:57;;;;;;;34.10;24.73;;;;;;;;;;4976425;28;20098;-47
2021/04/28 08:08:25;;;;;;;44.42;25.58;;;;;;;;;;4975913;28;20031;-49
2021/04/28 08:10:51;;;;;;;38.45;25.02;;;;;;;;;;4975963;28;20023;-47
2021/04/28 08:13:17;;;;;;;36.60;25.35;;;;;;;;;;4976476;28;20019;-47
2021/04/28 08:15:45;;;;;;;36.28;26.33;;;;;;;;;;4976228;28;20019;-48
2021/04/28 08:18:11;;;;;;;38.70;28.23;;;;;;;;;;4976101;28;20047;-47
2021/04/28 08:20:38;;;;;;;39.47;27.58;;;;;;;;;;4976133;28;20479;-48
2021/04/28 08:23:04;;;;;;;35.97;27.35;;;;;;;;;;4976129;28;20027;-48
2021/04/28 08:25:30;;;;;;;37.20;27.35;;;;;;;;;;4976070;28;20471;-48
2021/04/28 08:27:56;;;;;;;39.90;27.17;;;;;;;;;;4976081;28;20031;-48
2021/04/28 08:30:23;;;;;;;41.13;28.38;;;;;;;;;;4976143;28;20027;-48
2021/04/28 08:32:49;;;;;;;43.78;30.92;;;;;;;;;;4975987;28;20109;-47
2021/04/28 08:35:16;;;;;;;45.10;31.27;;;;;;;;;;4976019;28;20023;-48
2021/04/28 08:37:45;;;;;;;45.90;32.80;;;;;;;;;;4975615;28;20038;-48
2021/04/28 08:40:11;;;;;;;46.45;34.95;;;;;;;;;;4975738;28;20033;-48
2021/04/28 08:42:37;;;;;;;53.03;36.55;;;;;;;;;;4976199;28;20069;-49
2021/04/28 08:45:04;;;;;;;53.80;35.72;;;;;;;;;;4975639;28;20037;-48
2021/04/28 08:47:30;;;;;;;50.00;35.83;;;;;;;;;;4976028;28;20035;-47
2021/04/28 08:49:56;;;;;;;54.03;35.85;;;;;;;;;;4975735;28;20022;-48
2021/04/28 08:52:22;;;;;;;57.50;38.38;;;;;;;;;;4975624;28;20118;-48
2021/04/28 08:54:51;;;;;;;56.67;37.45;;;;;;;;;;4975622;28;20030;-48
2021/04/28 08:57:19;;;;;;;54.90;37.95;;;;;;;;;;4975702;28;20038;-47
2021/04/28 08:59:45;;;;;;;58.65;38.85;;;;;;;;;;4975397;28;20081;-48
2021/04/28 09:02:16;;;;;;;55.38;36.88;;;;;;;;;;4975437;28;20107;-49
2021/04/28 09:04:44;;;;;;;59.90;39.70;;;;;;;;;;4975117;28;20101;-48
2021/04/28 09:07:13;;;;;;;58.80;39.28;;;;;;;;;;4975390;28;20051;-48
2021/04/28 09:09:39;;;;;;;65.00;41.25;;;;;;;;;;4975207;28;20064;-48
2021/04/28 09:12:05;;;;;;;67.05;41.97;;;;;;;;;;4975446;28;20027;-48
2021/04/28 09:14:32;;;;;;;69.10;41.85;;;;;;;;;;4975173;28;20086;-49
2021/04/28 09:17:02;;;;;;;65.25;41.53;;;;;;;;;;4975351;28;20050;-48
2021/04/28 09:19:38;;;;;;;68.07;39.25;;;;;;;;;;4974919;28;20019;-52
2021/04/28 09:22:06;;;;;;;68.10;42.38;;;;;;;;;;4975093;28;20093;-48
2021/04/28 09:24:33;;;;;;;69.18;41.88;;;;;;;;;;4975038;28;20019;-48
2021/04/28 09:27:00;;;;;;;66.97;41.25;;;;;;;;;;4975034;28;20098;-47
2021/04/28 09:29:28;;;;;;;73.18;43.25;;;;;;;;;;4974969;28;20054;-47
2021/04/28 09:32:07;;;;;;;69.97;42.95;;;;;;;;;;4974973;28;20464;-47
2021/04/28 09:34:33;;;;;;;67.07;41.83;;;;;;;;;;4974847;28;20038;-47
2021/04/28 09:37:01;;;;;;;70.32;44.20;;;;;;;;;;4974794;28;20117;-48
2021/04/28 09:39:27;;;;;;;70.50;43.20;;;;;;;;;;4974950;28;20023;-48
2021/04/28 09:41:56;;;;;;;65.32;42.63;;;;;;;;;;4974789;28;20498;-48
2021/04/28 09:44:27;;;;;;;68.70;43.53;;;;;;;;;;4974615;28;20031;-47
2021/04/28 09:46:56;;;;;;;65.97;42.33;;;;;;;;;;4975008;28;20039;-47
2021/04/28 09:49:22;;;;;;;59.88;38.47;;;;;;;;;;4974689;28;20027;-48
2021/04/28 09:51:54;;;;;;;53.22;33.08;;;;;;;;;;4974710;28;20061;-47
2021/04/28 09:54:20;;;;;;;43.40;32.80;;;;;;;;;;4974661;28;20034;-47
2021/04/28 09:56:46;;;;;;;42.92;29.88;;;;;;;;;;4974759;28;20031;-47
2021/04/28 09:59:12;;;;;;;49.13;31.02;;;;;;;;;;4975063;28;20082;-47
2021/04/28 10:01:42;;;;;;;44.83;30.17;;;;;;;;;;4974506;28;20031;-48
2021/04/28 10:04:09;;;;;;;53.35;31.92;;;;;;;;;;4974620;28;20019;-48
2021/04/28 10:06:49;;;;;;;55.70;33.95;;;;;;;;;;4956554;28;20047;-48
2021/04/28 10:09:31;;;;;;;52.20;30.63;;;;;;;;;;4974405;28;20151;-47
2021/04/28 10:11:58;;;;;;;48.95;31.10;;;;;;;;;;4974633;28;20031;-46
2021/04/28 10:14:26;;;;;;;53.30;33.15;;;;;;;;;;4974749;28;20026;-47
2021/04/28 10:16:55;;;;;;;52.13;32.08;;;;;;;;;;4974728;28;20043;-47
2021/04/28 10:19:27;;;;;;;52.97;32.40;;;;;;;;;;4974395;28;20066;-46
2021/04/28 10:22:03;;;;;;;55.30;32.97;;;;;;;;;;4974434;28;20066;-47
2021/04/28 10:24:30;;;;;;;64.45;34.15;;;;;;;;;;4974519;28;20034;-47
2021/04/28 10:26:57;;;;;;;60.65;34.35;;;;;;;;;;4974702;28;20362;-50
2021/04/28 10:29:24;;;;;;;61.95;32.65;;;;;;;;;;4974386;28;20488;-48
2021/04/28 10:31:51;;;;;;;51.42;31.67;;;;;;;;;;4974365;28;20027;-50
2021/04/28 10:34:24;;;;;;;55.55;31.33;;;;;;;;;;4978635;28;20102;-49
2021/04/28 10:36:55;;;;;;;50.80;30.60;;;;;;;;;;4977835;28;20029;-49
2021/04/28 10:39:22;;;;;;;40.35;25.52;;;;;;;;;;4977904;28;20031;-48
2021/04/28 10:41:48;;;;;;;38.47;23.70;;;;;;;;;;4978256;28;20055;-49
2021/04/28 10:44:34;;;;;;;36.03;20.08;;;;;;;;;;4977826;28;20031;-49
2021/04/28 10:47:12;;;;;;;33.08;20.90;;;;;;;;;;4978179;28;20452;-49
2021/04/28 10:49:57;;;;;;;36.80;22.40;;;;;;;;;;4977792;28;20026;-47
2021/04/28 10:52:34;;;;;;;36.78;22.90;;;;;;;;;;4977755;28;20106;-47
2021/04/28 10:55:01;;;;;;;41.58;24.73;;;;;;;;;;4977875;28;20034;-49
2021/04/28 10:57:37;;;;;;;46.45;26.35;;;;;;;;;;4977725;28;20498;-48
2021/04/28 11:00:21;;;;;;;41.63;26.45;;;;;;;;;;4978080;28;20031;-48
2021/04/28 11:02:50;;;;;;;45.42;25.60;;;;;;;;;;4977550;28;20086;-51
2021/04/28 11:05:28;;;;;;;39.63;24.75;;;;;;;;;;4977615;28;20022;-47
2021/04/28 11:07:58;;;;;;;39.85;25.08;;;;;;;;;;4977266;28;20129;-47
2021/04/28 11:10:25;;;;;;;34.45;23.25;;;;;;;;;;4977424;28;20023;-47
2021/04/28 11:13:06;;;;;;;37.05;22.25;;;;;;;;;;4977186;28;20022;-48
2021/04/28 11:15:49;;;;;;;34.33;22.05;;;;;;;;;;4977398;28;20106;-49
2021/04/28 11:18:35;;;;;;;36.10;23.65;;;;;;;;;;4977448;28;20081;-49
2021/04/28 11:21:26;;;;;;;36.90;23.60;;;;;;;;;;4977291;28;20054;-46
2021/04/28 11:24:04;;;;;;;42.47;29.02;;;;;;;;;;4977177;28;20031;-46
2021/04/28 11:26:30;;;;;;;34.85;22.73;;;;;;;;;;4977088;28;20519;-47
2021/04/28 11:28:57;;;;;;;32.20;22.38;;;;;;;;;;4977422;28;20035;-48
2021/04/28 11:31:23;;;;;;;35.28;24.63;;;;;;;;;;4977465;28;20523;-47
2021/04/28 11:33:50;;;;;;;34.10;24.50;;;;;;;;;;4977130;28;20030;-47
2021/04/28 11:36:17;;;;;;;36.03;24.27;;;;;;;;;;4976886;28;20527;-47
2021/04/28 11:38:45;;;;;;;34.95;24.50;;;;;;;;;;4977072;28;20070;-48
2021/04/28 11:41:11;;;;;;;34.25;20.08;;;;;;;;;;4976793;28;20037;-46
2021/04/28 11:43:44;;;;;;;26.25;18.60;;;;;;;;;;4976850;28;20023;-47
2021/04/28 11:46:14;;;;;;;35.65;22.13;;;;;;;;;;4976737;28;20050;-47
2021/04/28 11:48:41;;;;;;;33.38;22.02;;;;;;;;;;4976555;28;20464;-46
2021/04/28 11:51:09;;;;;;;29.90;19.75;;;;;;;;;;4976879;28;20353;-47
2021/04/28 11:53:44;;;;;;;23.92;18.50;;;;;;;;;;4976612;28;20538;-47
2021/04/28 11:56:10;;;;;;;24.65;18.58;;;;;;;;;;4976696;28;20073;-47
2021/04/28 11:58:36;;;;;;;24.02;18.85;;;;;;;;;;4976545;28;20394;-46
2021/04/28 12:01:06;;;;;;;31.13;20.67;;;;;;;;;;4976664;28;20023;-47
2021/04/28 12:03:50;;;;;;;41.67;21.45;;;;;;;;;;4976398;28;20488;-46
2021/04/28 12:06:29;;;;;;;42.28;23.10;;;;;;;;;;4976609;28;20049;-47
2021/04/28 12:09:12;;;;;;;39.50;22.95;;;;;;;;;;4959158;28;20480;-47
2021/04/28 12:11:40;;;;;;;30.23;20.77;;;;;;;;;;4976415;28;20037;-47
2021/04/28 12:14:06;;;;;;;43.35;24.55;;;;;;;;;;4976080;28;20098;-47
2021/04/28 12:16:32;;;;;;;33.13;22.67;;;;;;;;;;4967257;28;20098;-48
2021/04/28 12:19:08;;;;;;;34.10;22.13;;;;;;;;;;4965819;28;20023;-49
2021/04/28 12:21:34;;;;;;;40.00;24.65;;;;;;;;;;4966133;28;20475;-47
2021/04/28 12:24:00;;;;;;;31.40;22.10;;;;;;;;;;4974608;28;20031;-48
2021/04/28 12:26:29;;;;;;;25.35;19.95;;;;;;;;;;4975769;28;20590;-48
2021/04/28 12:28:57;;;;;;;24.45;19.00;;;;;;;;;;4976036;28;20029;-48
2021/04/28 12:31:42;;;;;;;33.17;22.23;;;;;;;;;;4975734;28;20018;-48
2021/04/28 12:34:08;;;;;;;46.85;30.33;;;;;;;;;;4975614;28;20034;-49
2021/04/28 12:36:34;;;;;;;20.58;17.13;;;;;;;;;;4975703;28;20081;-48
2021/04/28 12:39:01;;;;;;;21.15;16.08;;;;;;;;;;4975795;28;20483;-47
2021/04/28 12:41:27;;;;;;;22.40;16.98;;;;;;;;;;4975629;28;20055;-47
2021/04/28 12:43:53;;;;;;;19.73;15.13;;;;;;;;;;4975389;28;20030;-48
2021/04/28 12:46:19;;;;;;;21.60;17.17;;;;;;;;;;4975338;28;20050;-48
2021/04/28 12:49:00;;;;;;;25.73;18.35;;;;;;;;;;4975501;28;20518;-46
2021/04/28 12:51:28;;;;;;;22.50;17.65;;;;;;;;;;4975456;28;20030;-49
2021/04/28 12:53:54;;;;;;;25.38;16.70;;;;;;;;;;4975721;28;20077;-48
2021/04/28 12:56:20;;;;;;;26.23;17.95;;;;;;;;;;4974784;28;20034;-49
2021/04/28 12:58:51;;;;;;;20.50;15.73;;;;;;;;;;4957916;28;20134;-45
2021/04/28 13:01:21;;;;;;;28.08;18.30;;;;;;;;;;4975393;28;20102;-47
2021/04/28 13:03:47;;;;;;;27.15;19.80;;;;;;;;;;4975226;28;20082;-47
2021/04/28 13:06:26;;;;;;;30.60;21.45;;;;;;;;;;4974945;28;20058;-48
2021/04/28 13:08:53;;;;;;;30.98;19.83;;;;;;;;;;4974954;28;20031;-48
2021/04/28 13:11:26;;;;;;;25.75;19.23;;;;;;;;;;4974604;28;20034;-47
2021/04/28 13:13:55;;;;;;;21.75;16.85;;;;;;;;;;4974964;28;20058;-47
2021/04/28 13:16:36;;;;;;;34.75;20.08;;;;;;;;;;4975091;28;20035;-47
2021/04/28 13:19:04;;;;;;;;;;;;;;;;;;4975022;28;20125;-47
2021/04/28 13:21:32;;;;;;;21.05;14.52;;;;;;;;;;4975093;28;19906;-49
2021/04/28 13:24:09;;;;;;;22.73;16.83;;;;;;;;;;4974953;28;20050;-46
2021/04/28 13:26:36;;;;;;;27.83;17.92;;;;;;;;;;4974742;28;20391;-48
2021/04/28 13:29:05;;;;;;;34.33;22.35;;;;;;;;;;4974677;28;20027;-49
2021/04/28 13:31:32;;;;;;;22.17;16.60;;;;;;;;;;4957401;28;20451;-47
2021/04/28 13:34:03;;;;;;;24.77;17.10;;;;;;;;;;4974915;28;20537;-48
2021/04/28 13:36:29;;;;;;;24.88;16.65;;;;;;;;;;4971921;28;20038;-45
2021/04/28 13:38:57;;;;;;;25.17;17.65;;;;;;;;;;4946063;28;20030;-50
2021/04/28 13:41:23;;;;;;;21.88;15.90;;;;;;;;;;4944975;28;20118;-45
2021/04/28 13:43:49;;;;;;;22.95;17.95;;;;;;;;;;4944555;28;20090;-46
2021/04/28 13:46:16;;;;;;;23.48;18.23;;;;;;;;;;4945708;28;20062;-46
2021/04/28 13:48:42;;;;;;;25.08;17.80;;;;;;;;;;4945302;28;20041;-46
2021/04/28 13:51:10;;;;;;;26.42;20.30;;;;;;;;;;4944913;28;20392;-47
2021/04/28 13:53:36;;;;;;;23.15;17.77;;;;;;;;;;4944063;28;20023;-47
2021/04/28 13:56:02;;;;;;;32.17;20.23;;;;;;;;;;4944605;28;20023;-46
2021/04/28 13:58:29;;;;;;;23.48;16.08;;;;;;;;;;4944417;28;20035;-46
2021/04/28 14:00:55;;;;;;;24.05;18.10;;;;;;;;;;4944368;28;20476;-46
2021/04/28 14:03:23;;;;;;;25.27;17.50;;;;;;;;;;4945000;28;20030;-47
2021/04/28 14:05:49;;;;;;;28.60;17.58;;;;;;;;;;4944530;28;20330;-47
2021/04/28 14:08:17;;;;;;;26.50;15.98;;;;;;;;;;4946864;28;20370;-46
2021/04/28 14:10:43;;;;;;;21.58;15.68;;;;;;;;;;4948334;28;20027;-46
2021/04/28 14:13:09;;;;;;;20.48;14.68;;;;;;;;;;4949739;28;20027;-48
2021/04/28 14:15:35;;;;;;;22.83;17.38;;;;;;;;;;4948101;28;20050;-47
2021/04/28 14:18:02;;;;;;;24.17;16.88;;;;;;;;;;4949178;28;20043;-46
2021/04/28 14:20:29;;;;;;;22.20;16.60;;;;;;;;;;4949361;28;20047;-47